Time,TemperatureF,DewpointF,PressureIn,WindDirection,WindDirectionDegrees,WindSpeedMPH,WindSpeedGustMPH,Humidity,HourlyPrecipIn,Conditions,Clouds,dailyrainin,SoftwareType,DateUTC
2013-08-08 00:11:00,69.0,67.0,-100.00,NNW,330,5.0,6.0,93,-99.99,,,-99.99,,2013-08-08 05:11:00,
2013-08-08 00:22:00,69.0,67.0,-100.00,NNW,330,5.0,6.0,93,-99.99,,,-99.99,,2013-08-08 05:22:00,
2013-08-08 00:33:00,70.0,68.0,-100.00,NNW,345,6.0,8.0,92,-99.99,,,-99.99,,2013-08-08 05:33:00,
2013-08-08 00:43:00,70.0,68.0,-100.00,NNW,345,6.0,10.0,91,-99.99,,,-99.99,,2013-08-08 05:43:00,
2013-08-08 00:52:00,70.0,68.0,-100.00,NNW,345,6.0,10.0,91,-99.99,,,-99.99,,2013-08-08 05:52:00,
2013-08-08 01:01:00,70.0,67.0,-100.00,North,350,6.0,8.0,90,-99.99,,,-99.99,,2013-08-08 06:01:00,
2013-08-08 01:12:00,70.0,67.0,-100.00,North,0,7.0,9.0,90,-99.99,,,-99.99,,2013-08-08 06:12:00,
2013-08-08 01:22:00,70.0,67.0,-100.00,North,0,7.0,9.0,90,-99.99,,,-99.99,,2013-08-08 06:22:00,
2013-08-08 01:43:00,69.0,66.0,-100.00,North,0,5.0,8.0,91,-99.99,,,-99.99,,2013-08-08 06:43:00,
2013-08-08 01:52:00,69.0,66.0,-100.00,North,0,5.0,8.0,91,-99.99,,,-99.99,,2013-08-08 06:52:00,
2013-08-08 02:12:00,68.0,66.0,-100.00,North,5,6.0,7.0,94,-99.99,,,-99.99,,2013-08-08 07:12:00,
2013-08-08 02:22:00,68.0,66.0,-100.00,North,5,6.0,7.0,94,-99.99,,,-99.99,,2013-08-08 07:22:00,
2013-08-08 02:32:00,68.0,67.0,-100.00,NNE,15,6.0,9.0,95,-99.99,,,-99.99,,2013-08-08 07:32:00,
2013-08-08 02:43:00,68.0,66.0,-100.00,North,5,6.0,7.0,95,-99.99,,,-99.99,,2013-08-08 07:43:00,
2013-08-08 02:53:00,68.0,66.0,-100.00,North,5,6.0,7.0,95,-99.99,,,-99.99,,2013-08-08 07:53:00,
2013-08-08 03:02:00,69.0,67.0,-100.00,NNE,20,9.0,12.0,96,-99.99,,,-99.99,,2013-08-08 08:02:00,
2013-08-08 03:11:00,69.0,67.0,-100.00,NNE,25,7.0,11.0,96,-99.99,,,-99.99,,2013-08-08 08:11:00,
2013-08-08 03:22:00,69.0,67.0,-100.00,NNE,25,7.0,11.0,96,-99.99,,,-99.99,,2013-08-08 08:22:00,
2013-08-08 03:43:00,67.0,66.0,-100.00,NNE,20,6.0,8.0,96,-99.99,,,-99.99,,2013-08-08 08:43:00,
2013-08-08 03:53:00,67.0,66.0,-100.00,NNE,20,6.0,8.0,96,-99.99,,,-99.99,,2013-08-08 08:53:00,
2013-08-08 04:12:00,67.0,66.0,-100.00,NNE,25,6.0,9.0,96,-99.99,,,-99.99,,2013-08-08 09:12:00,
2013-08-08 04:22:00,67.0,66.0,-100.00,NNE,25,6.0,9.0,96,-99.99,,,-99.99,,2013-08-08 09:22:00,
2013-08-08 04:43:00,66.0,65.0,-100.00,NNE,30,7.0,10.0,96,-99.99,,,-99.99,,2013-08-08 09:43:00,
2013-08-08 04:53:00,66.0,65.0,-100.00,NNE,30,7.0,10.0,96,-99.99,,,-99.99,,2013-08-08 09:53:00,
2013-08-08 05:01:00,66.0,65.0,-100.00,NNE,25,6.0,9.0,96,-99.99,,,-99.99,,2013-08-08 10:01:00,
2013-08-08 05:12:00,66.0,64.0,-100.00,NE,35,5.0,9.0,96,-99.99,,,-99.99,,2013-08-08 10:12:00,
2013-08-08 05:22:00,66.0,64.0,-100.00,NE,35,5.0,9.0,96,-99.99,,,-99.99,,2013-08-08 10:22:00,
2013-08-08 05:32:00,65.0,64.0,-100.00,NE,55,5.0,7.0,96,-99.99,,,-99.99,,2013-08-08 10:32:00,
2013-08-08 05:43:00,65.0,64.0,-100.00,NE,55,5.0,7.0,96,-99.99,,,-99.99,,2013-08-08 10:43:00,
2013-08-08 05:52:00,65.0,64.0,-100.00,NE,55,5.0,7.0,96,-99.99,,,-99.99,,2013-08-08 10:52:00,
2013-08-08 06:02:00,64.0,63.0,-100.00,NE,45,5.0,6.0,96,-99.99,,,-99.99,,2013-08-08 11:02:00,
2013-08-08 06:11:00,64.0,63.0,-100.00,NNE,25,7.0,8.0,96,-99.99,,,-99.99,,2013-08-08 11:11:00,
2013-08-08 06:22:00,64.0,63.0,-100.00,NNE,25,7.0,8.0,96,-99.99,,,-99.99,,2013-08-08 11:22:00,
2013-08-08 06:43:00,65.0,63.0,-100.00,NNE,25,8.0,11.0,96,-99.99,,,-99.99,,2013-08-08 11:43:00,
2013-08-08 06:52:00,65.0,63.0,-100.00,NNE,25,8.0,11.0,96,-99.99,,,-99.99,,2013-08-08 11:52:00,
2013-08-08 07:01:00,65.0,64.0,-100.00,NNE,30,7.0,10.0,96,-99.99,,,-99.99,,2013-08-08 12:01:00,
2013-08-08 07:11:00,65.0,64.0,-100.00,NNE,25,6.0,8.0,96,-99.99,,,-99.99,,2013-08-08 12:11:00,
2013-08-08 07:21:00,65.0,64.0,-100.00,NNE,25,6.0,8.0,96,-99.99,,,-99.99,,2013-08-08 12:21:00,
2013-08-08 07:43:00,67.0,65.0,-100.00,NE,45,8.0,14.0,94,-99.99,,,-99.99,,2013-08-08 12:43:00,
2013-08-08 07:53:00,67.0,65.0,-100.00,NE,45,8.0,14.0,94,-99.99,,,-99.99,,2013-08-08 12:53:00,
2013-08-08 08:11:00,68.0,65.0,-100.00,NE,45,9.0,15.0,90,-99.99,,,-99.99,,2013-08-08 13:11:00,
2013-08-08 08:22:00,68.0,65.0,-100.00,NE,45,9.0,15.0,90,-99.99,,,-99.99,,2013-08-08 13:22:00,
2013-08-08 08:32:00,69.0,66.0,-100.00,NE,55,12.0,16.0,89,-99.99,,,-99.99,,2013-08-08 13:32:00,
2013-08-08 08:43:00,69.0,66.0,-100.00,ENE,60,14.0,18.0,88,-99.99,,,-99.99,,2013-08-08 13:43:00,
2013-08-08 08:53:00,69.0,66.0,-100.00,ENE,60,14.0,18.0,88,-99.99,,,-99.99,,2013-08-08 13:53:00,
2013-08-08 09:11:00,71.0,66.0,-100.00,NE,55,14.0,17.0,84,-99.99,,,-99.99,,2013-08-08 14:11:00,
2013-08-08 09:22:00,71.0,66.0,-100.00,NE,55,14.0,17.0,84,-99.99,,,-99.99,,2013-08-08 14:22:00,
2013-08-08 09:32:00,72.0,66.0,-100.00,NE,50,11.0,15.0,82,-99.99,,,-99.99,,2013-08-08 14:32:00,
2013-08-08 09:43:00,73.0,67.0,-100.00,ENE,70,12.0,16.0,80,-99.99,,,-99.99,,2013-08-08 14:43:00,
2013-08-08 09:53:00,73.0,67.0,-100.00,ENE,70,12.0,16.0,80,-99.99,,,-99.99,,2013-08-08 14:53:00,
2013-08-08 10:02:00,74.0,67.0,-100.00,NE,45,10.0,16.0,78,-99.99,,,-99.99,,2013-08-08 15:02:00,
2013-08-08 10:11:00,75.0,67.0,-100.00,ENE,75,10.0,15.0,77,-99.99,,,-99.99,,2013-08-08 15:11:00,
2013-08-08 10:22:00,75.0,67.0,-100.00,ENE,75,10.0,15.0,77,-99.99,,,-99.99,,2013-08-08 15:22:00,
2013-08-08 10:43:00,76.0,67.0,-100.00,East,80,8.0,14.0,75,-99.99,,,-99.99,,2013-08-08 15:43:00,
2013-08-08 10:53:00,76.0,67.0,-100.00,East,80,8.0,14.0,75,-99.99,,,-99.99,,2013-08-08 15:53:00,
2013-08-08 11:11:00,77.0,67.0,-100.00,East,85,9.0,15.0,73,-99.99,,,-99.99,,2013-08-08 16:11:00,
2013-08-08 11:22:00,77.0,67.0,-100.00,East,85,9.0,15.0,73,-99.99,,,-99.99,,2013-08-08 16:22:00,
2013-08-08 11:32:00,77.0,68.0,-100.00,NE,50,8.0,13.0,73,-99.99,,,-99.99,,2013-08-08 16:32:00,
2013-08-08 11:42:00,78.0,68.0,-100.00,ENE,60,9.0,14.0,72,-99.99,,,-99.99,,2013-08-08 16:42:00,
2013-08-08 11:52:00,78.0,68.0,-100.00,ENE,60,9.0,14.0,72,-99.99,,,-99.99,,2013-08-08 16:52:00,
2013-08-08 12:02:00,78.0,69.0,-100.00,ENE,60,8.0,13.0,73,-99.99,,,-99.99,,2013-08-08 17:02:00,
2013-08-08 12:11:00,79.0,68.0,-100.00,ENE,70,7.0,11.0,71,-99.99,,,-99.99,,2013-08-08 17:11:00,
2013-08-08 12:21:00,79.0,68.0,-100.00,ENE,70,7.0,11.0,71,-99.99,,,-99.99,,2013-08-08 17:21:00,
2013-08-08 12:32:00,79.0,69.0,-100.00,NE,40,8.0,12.0,72,-99.99,,,-99.99,,2013-08-08 17:32:00,
2013-08-08 12:43:00,78.0,68.0,-100.00,NE,35,7.0,12.0,72,-99.99,,,-99.99,,2013-08-08 17:43:00,
2013-08-08 12:52:00,78.0,68.0,-100.00,NE,35,7.0,12.0,72,-99.99,,,-99.99,,2013-08-08 17:52:00,
2013-08-08 13:01:00,78.0,68.0,-100.00,NE,35,9.0,11.0,73,-99.99,,,-99.99,,2013-08-08 18:01:00,
2013-08-08 13:11:00,79.0,69.0,-100.00,NE,50,4.0,11.0,70,-99.99,,,-99.99,,2013-08-08 18:11:00,
2013-08-08 13:22:00,79.0,69.0,-100.00,NE,50,4.0,11.0,70,-99.99,,,-99.99,,2013-08-08 18:22:00,
2013-08-08 13:32:00,79.0,69.0,-100.00,NE,55,6.0,12.0,71,-99.99,,,-99.99,,2013-08-08 18:32:00,
2013-08-08 13:43:00,80.0,69.0,-100.00,NE,40,8.0,11.0,68,-99.99,,,-99.99,,2013-08-08 18:43:00,
2013-08-08 13:53:00,80.0,69.0,-100.00,NE,40,8.0,11.0,68,-99.99,,,-99.99,,2013-08-08 18:53:00,
2013-08-08 14:01:00,81.0,69.0,-100.00,NE,40,8.0,12.0,68,-99.99,,,-99.99,,2013-08-08 19:01:00,
2013-08-08 14:12:00,81.0,69.0,-100.00,NE,55,8.0,12.0,67,-99.99,,,-99.99,,2013-08-08 19:12:00,
2013-08-08 14:22:00,81.0,69.0,-100.00,NE,55,8.0,12.0,67,-99.99,,,-99.99,,2013-08-08 19:22:00,
2013-08-08 14:32:00,80.0,69.0,-100.00,ENE,60,6.0,11.0,68,-99.99,,,-99.99,,2013-08-08 19:32:00,
2013-08-08 14:43:00,80.0,69.0,-100.00,North,10,6.0,12.0,69,-99.99,,,-99.99,,2013-08-08 19:43:00,
2013-08-08 14:58:00,80.0,69.0,-100.00,North,10,6.0,12.0,69,-99.99,,,-99.99,,2013-08-08 19:58:00,
2013-08-08 15:11:00,80.0,69.0,-100.00,NNE,20,11.0,16.0,69,-99.99,,,-99.99,,2013-08-08 20:11:00,
2013-08-08 15:22:00,80.0,69.0,-100.00,NNE,20,11.0,16.0,69,-99.99,,,-99.99,,2013-08-08 20:22:00,
2013-08-08 15:32:00,80.0,69.0,-100.00,NE,45,9.0,12.0,68,-99.99,,,-99.99,,2013-08-08 20:32:00,
2013-08-08 15:42:00,80.0,68.0,-100.00,NE,35,12.0,18.0,67,-99.99,,,-99.99,,2013-08-08 20:42:00,
2013-08-08 15:52:00,80.0,68.0,-100.00,NE,35,12.0,18.0,67,-99.99,,,-99.99,,2013-08-08 20:52:00,
2013-08-08 16:14:00,81.0,67.0,-100.00,ENE,60,12.0,18.0,63,-99.99,,,-99.99,,2013-08-08 21:14:00,
2013-08-08 16:24:00,81.0,67.0,-100.00,ENE,60,12.0,18.0,63,-99.99,,,-99.99,,2013-08-08 21:24:00,
2013-08-08 16:44:00,82.0,68.0,-100.00,NNE,30,11.0,17.0,63,-99.99,,,-99.99,,2013-08-08 21:44:00,
2013-08-08 16:57:00,82.0,68.0,-100.00,NNE,30,11.0,17.0,63,-99.99,,,-99.99,,2013-08-08 21:57:00,
2013-08-08 17:16:00,81.0,68.0,-100.00,NE,50,10.0,14.0,65,-99.99,,,-99.99,,2013-08-08 22:16:00,
2013-08-08 17:25:00,81.0,68.0,-100.00,NE,50,10.0,14.0,65,-99.99,,,-99.99,,2013-08-08 22:25:00,
2013-08-08 17:35:00,80.0,67.0,-100.00,NE,35,9.0,13.0,66,-99.99,,,-99.99,,2013-08-08 22:35:00,
2013-08-08 17:47:00,79.0,67.0,-100.00,NNE,25,8.0,12.0,67,-99.99,,,-99.99,,2013-08-08 22:47:00,
2013-08-08 17:58:00,79.0,67.0,-100.00,NNE,25,8.0,12.0,67,-99.99,,,-99.99,,2013-08-08 22:58:00,
2013-08-08 18:04:00,81.0,67.0,-100.00,NNE,30,13.0,15.0,63,-99.99,,,-99.99,,2013-08-08 23:04:00,
2013-08-08 18:14:00,79.0,66.0,-100.00,NE,35,9.0,14.0,65,-99.99,,,-99.99,,2013-08-08 23:14:00,
2013-08-08 18:24:00,79.0,66.0,-100.00,NE,35,9.0,14.0,65,-99.99,,,-99.99,,2013-08-08 23:24:00,
2013-08-08 18:36:00,78.0,65.0,-100.00,NNE,25,8.0,13.0,65,-99.99,,,-99.99,,2013-08-08 23:36:00,
2013-08-08 18:46:00,78.0,66.0,-100.00,NNE,30,9.0,12.0,67,-99.99,,,-99.99,,2013-08-08 23:46:00,
2013-08-08 18:57:00,78.0,66.0,-100.00,NNE,30,9.0,12.0,67,-99.99,,,-99.99,,2013-08-08 23:57:00,
2013-08-08 19:14:00,76.0,65.0,-100.00,NNE,15,8.0,11.0,69,-99.99,,,-99.99,,2013-08-09 00:14:00,
2013-08-08 19:24:00,76.0,65.0,-100.00,NNE,15,8.0,11.0,69,-99.99,,,-99.99,,2013-08-09 00:24:00,
2013-08-08 19:34:00,76.0,65.0,-100.00,NNE,30,9.0,13.0,70,-99.99,,,-99.99,,2013-08-09 00:34:00,
2013-08-08 19:56:00,75.0,65.0,-100.00,NNE,30,9.0,13.0,71,-99.99,,,-99.99,,2013-08-09 00:56:00,
2013-08-08 20:03:00,74.0,65.0,-100.00,NNE,30,9.0,12.0,72,-99.99,,,-99.99,,2013-08-09 01:03:00,
2013-08-08 20:15:00,74.0,65.0,-100.00,NNE,30,9.0,14.0,73,-99.99,,,-99.99,,2013-08-09 01:15:00,
2013-08-08 20:25:00,74.0,65.0,-100.00,NNE,30,9.0,14.0,73,-99.99,,,-99.99,,2013-08-09 01:25:00,
2013-08-08 20:35:00,73.0,64.0,-100.00,NE,35,10.0,11.0,73,-99.99,,,-99.99,,2013-08-09 01:35:00,
2013-08-08 20:59:00,73.0,64.0,-100.00,NNE,30,8.0,12.0,73,-99.99,,,-99.99,,2013-08-09 01:59:00,
2013-08-08 21:14:00,72.0,63.0,-100.00,NE,35,6.0,9.0,75,-99.99,,,-99.99,,2013-08-09 02:14:00,
2013-08-08 21:25:00,72.0,63.0,-100.00,NE,35,6.0,9.0,75,-99.99,,,-99.99,,2013-08-09 02:25:00,
2013-08-08 21:37:00,71.0,63.0,-100.00,NE,50,6.0,9.0,76,-99.99,,,-99.99,,2013-08-09 02:37:00,
2013-08-08 21:57:00,71.0,63.0,-100.00,ENE,60,6.0,9.0,77,-99.99,,,-99.99,,2013-08-09 02:57:00,
2013-08-08 22:15:00,69.0,63.0,-100.00,NE,35,4.0,5.0,82,-99.99,,,-99.99,,2013-08-09 03:15:00,
2013-08-08 22:34:00,68.0,63.0,-100.00,ENE,65,5.0,6.0,85,-99.99,,,-99.99,,2013-08-09 03:34:00,
2013-08-08 22:45:00,67.0,64.0,-100.00,ENE,60,5.0,6.0,88,-99.99,,,-99.99,,2013-08-09 03:45:00,
2013-08-08 22:56:00,67.0,64.0,-100.00,ENE,60,5.0,6.0,88,-99.99,,,-99.99,,2013-08-09 03:56:00,
2013-08-08 23:01:00,67.0,64.0,-100.00,ENE,60,4.0,6.0,89,-99.99,,,-99.99,,2013-08-09 04:01:00,
2013-08-08 23:12:00,67.0,64.0,-100.00,NE,40,4.0,5.0,89,-99.99,,,-99.99,,2013-08-09 04:12:00,
2013-08-08 23:22:00,67.0,64.0,-100.00,NE,40,4.0,5.0,89,-99.99,,,-99.99,,2013-08-09 04:22:00,
2013-08-08 23:33:00,68.0,63.0,-100.00,NNE,30,4.0,6.0,86,-99.99,,,-99.99,,2013-08-09 04:33:00,
2013-08-08 23:43:00,67.0,62.0,-100.00,NE,40,6.0,7.0,86,-99.99,,,-99.99,,2013-08-09 04:43:00,
2013-08-08 23:53:00,67.0,62.0,-100.00,NE,40,6.0,7.0,86,-99.99,,,-99.99,,2013-08-09 04:53:00,